Create Tblcommutelog Verified Points Advance Search
| # | Trip ID | Id Commuter | Trip Date | Trip Num | Current Lat | Current Lng | Delta Distance | Current Time | Activity | Activity Confidence | Current Speed | |
|---|---|---|---|---|---|---|---|---|---|---|---|---|
| 70541 | 251217_770164_16637262_1850 | 770164 | (not set) | (not set) | 38.85946736217 | -77.175418281098 | 4.5664 | 2025-12-17 19:09:58 | on_bicycle | 100 | 4.6223859379331 | |
| 70542 | 251217_770164_16637262_1850 | 770164 | (not set) | (not set) | 38.85946736217 | -77.175418281098 | 4.5664 | 2025-12-17 19:09:58 | on_bicycle | 100 | 4.6223859379331 | |
| 70543 | 251217_765082_16631995_1629 | 765082 | (not set) | (not set) | 38.773432404575 | -77.294144988871 | 25.7234 | 2025-12-17 19:09:52 | in_vehicle | 100 | -0.44703925898772 | |
| 70544 | 251217_765082_16631995_1629 | 765082 | (not set) | (not set) | 38.777161793078 | -77.298101420701 | 26.2195 | 2025-12-17 19:09:59 | in_vehicle | 100 | 9.4146467942815 | |
| 70545 | 251217_787617_16656109_1819 | 787617 | (not set) | (not set) | 38.973171297723 | -76.869798133612 | 14.8673 | 2025-12-17 19:10:02 | in_vehicle | 100 | 12.566273570145 | |
| 70546 | 251217_784917_16652961_1736 | 784917 | (not set) | (not set) | 39.091124349987 | -77.560103484556 | 40.5217 | 2025-12-17 19:10:05 | in_vehicle | 100 | 7.3582662029379 | |
| 70547 | 251217_789883_0_1727 | 789883 | (not set) | (not set) | 38.929990081672 | -77.055016382701 | 29.5793 | 2025-12-17 19:09:05 | on_bicycle | 100 | -0.44703925898772 | |
| 70548 | 251217_770658_16637794_1853 | 770658 | (not set) | (not set) | 38.917082293189 | -77.118941888198 | 6.2461 | 2025-12-17 19:10:10 | in_vehicle | 100 | 5.1275403005892 | |
| 70549 | 251217_770658_16637794_1853 | 770658 | (not set) | (not set) | 38.917082293189 | -77.118941888198 | 6.2461 | 2025-12-17 19:10:10 | in_vehicle | 100 | 5.1275403005892 | |
| 70550 | 251217_765082_16631995_1629 | 765082 | (not set) | (not set) | 38.778552570055 | -77.300435083824 | 26.3779 | 2025-12-17 19:10:11 | in_vehicle | 100 | 8.0198843062398 | |
| 70551 | 251217_787617_16656109_1819 | 787617 | (not set) | (not set) | 38.976104696992 | -76.871661493736 | 15.0931 | 2025-12-17 19:10:16 | in_vehicle | 100 | 11.184922259873 | |
| 70552 | 251217_770164_16637262_1850 | 770164 | (not set) | (not set) | 38.859139108948 | -77.173707444775 | 4.6614 | 2025-12-17 19:10:19 | on_bicycle | 100 | 3.5137285756435 | |
| 70553 | 251217_770164_16637262_1850 | 770164 | (not set) | (not set) | 38.859139108948 | -77.173707444775 | 4.6614 | 2025-12-17 19:10:19 | on_bicycle | 100 | 3.5137285756435 | |
| 70554 | 251217_118321_1036641_1836 | 118321 | (not set) | (not set) | 38.883161042085 | -77.030189090611 | 3.3737 | 2025-12-17 19:10:19 | in_vehicle | 100 | -0.44703925898772 | |
| 70555 | 251217_118321_1036641_1836 | 118321 | (not set) | (not set) | 38.883413211406 | -77.031472305546 | 3.5354 | 2025-12-17 19:10:20 | in_vehicle | 100 | 4.4614518046975 | |
| 70556 | 251217_784917_16652961_1736 | 784917 | (not set) | (not set) | 39.090334254352 | -77.558001863504 | 40.6472 | 2025-12-17 19:10:21 | in_vehicle | 100 | 3.5629028941322 | |
| 70557 | 251217_765082_16631995_1629 | 765082 | (not set) | (not set) | 38.778964428658 | -77.301459003567 | 26.4401 | 2025-12-17 19:10:21 | still | 33 | 5.2124777597969 | |
| 70558 | 251217_770658_16637794_1853 | 770658 | (not set) | (not set) | 38.918440359934 | -77.119559368458 | 6.3456 | 2025-12-17 19:10:23 | in_vehicle | 100 | 5.7489248705821 | |
| 70559 | 251217_770658_16637794_1853 | 770658 | (not set) | (not set) | 38.918440359934 | -77.119559368458 | 6.3456 | 2025-12-17 19:10:23 | in_vehicle | 100 | 5.7489248705821 | |
| 70560 | 251217_784637_16652610_1854 | 784637 | (not set) | (not set) | 38.891426195953 | -77.042712528972 | 0.6313 | 2025-12-17 19:10:23 | running | 100 | 1.4439368065303 |